Terminal Aerodrome Forecast
Issued by NWS

Home | Current Version | Previous Version | Text Only | Print | Product List | Glossary On
Versions: 1 2 3 4 5 6 7 8 9 10 11 12 13
812
FTUS45 KABQ 291741
TAFROW
TAF
KROW 291741Z 2918/3018 27014G25KT P6SM SKC
     FM292100 25018G26KT P6SM SCT090 BKN120
     FM300200 25012KT P6SM BKN090
     FM300900 31010KT P6SM SKC=

USA.gov is the U.S. government's official web portal to all federal, state and local government web resources and services.